Accueil
METAR-TAF:

METAR-TAF

Aéroports :

Aéroport Franjo-Tuđman de Zagreb

Zagreb, Croatie

latitude: 45-44N, longitude: 016-04E, altitude: 106 m

Observation

Le bulletin a été fait il y a 42 minutes, à 23:30 UTC
Vent calme
Température 18°C
Humidité 83%
Pression 1013 hPa
Visibilité 10 km ou plus
pas de nuages en-dessous de 1500 mètres et pas de cumulonimbus.

METAR: LDZA 032330Z 00000KT CAVOK 18/15 Q1013 NOSIG

Heure: 02:12 (00:12 UTC)

Prévision

Le bulletin a été fait il y a 47 minutes, à 23:25 UTC
Prévision valable du 04 à 00 UTC au 05 à 00 UTC
Vent 5 kt de sud-ouest
Visibilité 10 km ou plus
pas de nuages en-dessous de 1500 mètres et pas de cumulonimbus.

TAF: LDZA 032325Z 0400/0500 22005KT CAVOK TX30/0413Z TN17/0403Z

Observations et prévisions météorologiques de plus de 4000 aéroports (messages METAR et TAF).

Les stations disponibles sont représentées par des disques jaunes et rouges sur la carte.

Passer la souris dessus pour voir le nom de la station.

Cliquer dessus pour voir les observations et prévisions météorologiques.

Pour changer de carte: cliquez sur les boutons verts avec une croix noire pour zoomer, sur le bouton vert avec un tiret pour effectuer un zoom arrière, ou sur les flèches vertes pour les cartes adjacentes.


METAR-TAF: